createdAt,value
2023-04-24T00:01:59.521Z,75.36
2023-04-24T00:04:36.386Z,74.96
2023-04-24T00:07:10.573Z,74.58
2023-04-24T00:09:44.995Z,75.41
2023-04-24T00:12:24.004Z,75.08
2023-04-24T00:14:52.429Z,75.22
2023-04-24T00:17:26.657Z,75.29
2023-04-24T00:20:14.014Z,74.81
2023-04-24T00:22:43.348Z,74.47
2023-04-24T00:25:14.217Z,74.35
2023-04-24T00:27:43.924Z,74.12
2023-04-24T00:30:13.782Z,73.62
2023-04-24T00:32:45.419Z,73.78
2023-04-24T00:35:18.983Z,74.05
2023-04-24T00:37:57.719Z,73.62
2023-04-24T00:40:32.760Z,73.50
2023-04-24T00:43:10.556Z,73.41
2023-04-24T00:45:41.677Z,73.61
2023-04-24T00:48:13.581Z,73.36
2023-04-24T00:50:46.600Z,73.18
2023-04-24T00:53:20.586Z,73.72
2023-04-24T00:55:51.330Z,73.76
2023-04-24T00:58:24.452Z,73.09
2023-04-24T01:00:55.175Z,73.47
2023-04-24T01:03:31.643Z,72.81
2023-04-24T01:06:11.971Z,73.26
2023-04-24T01:08:57.728Z,73.36
2023-04-24T01:11:27.717Z,73.83
2023-04-24T01:14:09.764Z,73.56
2023-04-24T01:16:40.339Z,73.08
2023-04-24T01:19:08.924Z,73.42
2023-04-24T01:21:50.309Z,73.99
2023-04-24T01:24:27.106Z,73.71
2023-04-24T01:26:58.540Z,74.70
2023-04-24T01:29:30.470Z,75.09
2023-04-24T01:32:03.716Z,74.36
2023-04-24T01:34:33.685Z,75.06
2023-04-24T01:37:04.532Z,75.69
2023-04-24T01:39:37.141Z,75.81
2023-04-24T01:42:15.636Z,76.01
2023-04-24T01:44:46.247Z,76.78
2023-04-24T01:47:25.112Z,76.93
2023-04-24T01:49:54.552Z,76.89
2023-04-24T01:52:26.347Z,76.92
2023-04-24T01:55:09.835Z,77.26
2023-04-24T01:57:49.118Z,77.01
2023-04-24T02:00:23.843Z,78.34
2023-04-24T02:02:57.614Z,77.74
2023-04-24T02:05:31.500Z,77.81
2023-04-24T02:08:03.469Z,79.87
2023-04-24T02:10:35.754Z,81.46
2023-04-24T02:13:05.795Z,80.72
2023-04-24T02:15:34.094Z,81.62
2023-04-24T02:18:02.512Z,82.56
2023-04-24T02:20:36.490Z,82.24
2023-04-24T02:23:12.822Z,81.98
2023-04-24T02:25:48.175Z,80.95
2023-04-24T02:28:30.716Z,80.20
2023-04-24T02:31:05.737Z,79.23
2023-04-24T02:33:42.343Z,78.35
2023-04-24T02:36:14.230Z,79.47
2023-04-24T02:38:47.286Z,80.95
2023-04-24T02:41:25.068Z,81.68
2023-04-24T02:43:55.927Z,81.98
2023-04-24T02:46:24.203Z,83.10
2023-04-24T02:49:01.943Z,82.66
2023-04-24T02:51:32.854Z,83.36
2023-04-24T02:54:09.886Z,83.31
2023-04-24T02:56:39.918Z,82.82
2023-04-24T02:59:17.792Z,82.76
2023-04-24T03:01:48.499Z,82.43
2023-04-24T03:04:21.571Z,82.72
2023-04-24T03:06:53.175Z,82.90
2023-04-24T03:09:30.374Z,81.20
2023-04-24T03:12:10.202Z,81.90
2023-04-24T03:14:40.379Z,81.20
2023-04-24T03:17:10.608Z,81.51
2023-04-24T03:19:42.020Z,81.39
2023-04-24T03:22:23.509Z,82.30
2023-04-24T03:24:58.269Z,82.18
2023-04-24T03:27:50.243Z,83.78
2023-04-24T03:30:42.416Z,86.13
2023-04-24T03:33:22.165Z,85.81
2023-04-24T03:36:02.500Z,85.30
2023-04-24T03:38:39.990Z,85.65
2023-04-24T03:41:28.576Z,87.20
2023-04-24T03:44:26.047Z,85.58
2023-04-24T03:46:54.304Z,86.51
2023-04-24T03:49:27.180Z,87.62
2023-04-24T03:51:55.600Z,87.17
2023-04-24T03:54:32.500Z,87.11
2023-04-24T03:57:02.562Z,87.79
2023-04-24T03:59:41.485Z,87.74
2023-04-24T04:02:24.667Z,88.02
2023-04-24T04:04:55.511Z,86.42
2023-04-24T04:07:29.956Z,86.84
2023-04-24T04:10:04.265Z,86.89
2023-04-24T04:12:36.003Z,87.70
2023-04-24T04:15:14.395Z,87.17
2023-04-24T04:17:43.413Z,87.33
2023-04-24T04:20:18.967Z,87.09
2023-04-24T04:22:48.594Z,87.09
2023-04-24T04:25:26.715Z,87.27
2023-04-24T04:27:56.001Z,86.51
2023-04-24T04:30:30.484Z,86.28
2023-04-24T04:33:08.924Z,88.13
2023-04-24T04:35:37.578Z,86.73
2023-04-24T04:38:09.420Z,87.49
2023-04-24T04:41:01.668Z,86.93
2023-04-24T04:43:35.818Z,86.51
2023-04-24T04:46:09.578Z,86.12
2023-04-24T04:48:55.315Z,86.08
2023-04-24T04:51:42.467Z,85.33
2023-04-24T04:54:12.001Z,85.57
2023-04-24T04:56:48.651Z,87.02
2023-04-24T04:59:17.554Z,87.04
2023-04-24T05:01:56.330Z,86.43
2023-04-24T05:04:28.226Z,86.01
2023-04-24T05:07:00.014Z,86.09
2023-04-24T05:09:33.180Z,84.80
2023-04-24T05:12:26.961Z,85.14
2023-04-24T05:14:59.530Z,84.24
2023-04-24T05:17:33.415Z,84.02
2023-04-24T05:20:04.889Z,83.51
2023-04-24T05:22:37.866Z,83.70
2023-04-24T05:25:15.919Z,83.51
2023-04-24T05:28:03.051Z,83.55
2023-04-24T05:30:41.217Z,83.04
2023-04-24T05:33:13.179Z,82.03
2023-04-24T05:35:46.743Z,82.07
2023-04-24T05:38:23.320Z,82.46
2023-04-24T05:40:52.880Z,82.10
2023-04-24T05:43:26.946Z,81.92
2023-04-24T05:45:56.391Z,82.08
2023-04-24T05:48:27.728Z,81.95
2023-04-24T05:50:57.161Z,81.06
2023-04-24T05:53:28.465Z,80.58
2023-04-24T05:55:57.892Z,79.52
2023-04-24T05:58:27.942Z,78.29
2023-04-24T06:01:00.614Z,77.96
2023-04-24T06:03:39.612Z,77.27
2023-04-24T06:06:16.254Z,76.61
2023-04-24T06:08:57.122Z,77.10
2023-04-24T06:11:28.469Z,76.21
2023-04-24T06:14:11.126Z,76.10
2023-04-24T06:16:50.194Z,75.34
2023-04-24T06:19:36.307Z,73.59
2023-04-24T06:22:09.708Z,73.84
2023-04-24T06:24:39.024Z,73.22
2023-04-24T06:27:09.571Z,73.58
2023-04-24T06:29:39.170Z,72.96
2023-04-24T06:32:11.030Z,73.11
2023-04-24T06:34:53.633Z,73.05
2023-04-24T06:37:27.374Z,72.79
2023-04-24T06:39:56.544Z,73.67
2023-04-24T06:42:26.848Z,73.08
2023-04-24T06:45:03.675Z,72.47
2023-04-24T06:47:32.680Z,72.26
2023-04-24T06:50:11.178Z,71.55
2023-04-24T06:52:41.597Z,71.90
2023-04-24T06:55:12.293Z,72.02
2023-04-24T06:57:42.129Z,71.88
2023-04-24T07:00:12.942Z,71.73
2023-04-24T07:02:43.842Z,71.74
2023-04-24T07:05:19.587Z,71.78
2023-04-24T07:07:52.865Z,71.74
2023-04-24T07:10:23.266Z,71.95
2023-04-24T07:12:53.616Z,72.27
2023-04-24T07:15:31.564Z,71.79
2023-04-24T07:18:03.347Z,72.51
2023-04-24T07:20:53.835Z,72.40
2023-04-24T07:23:25.083Z,72.88
2023-04-24T07:26:02.611Z,72.37
2023-04-24T07:28:34.692Z,72.32
2023-04-24T07:31:06.560Z,71.21
2023-04-24T07:33:38.238Z,70.77
2023-04-24T07:36:24.506Z,71.67
2023-04-24T07:38:54.912Z,72.63
2023-04-24T07:41:31.044Z,73.45
2023-04-24T07:44:02.987Z,73.05
2023-04-24T07:46:32.633Z,75.36
2023-04-24T07:49:12.881Z,75.82
2023-04-24T07:51:48.576Z,75.71
2023-04-24T07:54:17.711Z,75.51
2023-04-24T07:56:46.259Z,74.56
2023-04-24T07:59:25.326Z,75.90
2023-04-24T08:01:53.758Z,76.25
2023-04-24T08:04:25.571Z,77.24
2023-04-24T08:06:58.230Z,77.97
2023-04-24T08:09:34.840Z,77.47
2023-04-24T08:12:07.795Z,78.07
2023-04-24T08:14:45.350Z,79.10
2023-04-24T08:17:16.468Z,79.29
2023-04-24T08:20:02.685Z,78.79
2023-04-24T08:22:39.801Z,78.56
2023-04-24T08:25:20.864Z,78.45
2023-04-24T08:27:49.760Z,78.82
2023-04-24T08:30:29.491Z,78.53
2023-04-24T08:33:01.311Z,79.06
2023-04-24T08:35:33.102Z,78.88
2023-04-24T08:38:05.336Z,80.10
2023-04-24T08:40:39.357Z,79.39
2023-04-24T08:43:07.668Z,79.31
2023-04-24T08:45:39.538Z,81.55
2023-04-24T08:48:19.864Z,85.19
2023-04-24T08:51:09.858Z,89.30
2023-04-24T08:53:44.192Z,94.02
2023-04-24T08:56:19.006Z,98.02
2023-04-24T08:58:49.266Z,97.84
2023-04-24T09:01:19.261Z,97.62
2023-04-24T09:03:56.633Z,96.52
2023-04-24T09:06:28.387Z,94.78
2023-04-24T09:09:03.534Z,96.56
2023-04-24T09:11:36.416Z,96.87
2023-04-24T09:14:13.267Z,96.28
2023-04-24T09:16:46.116Z,96.94
2023-04-24T09:19:14.608Z,94.99
2023-04-24T09:21:49.298Z,95.52
2023-04-24T09:24:26.039Z,93.98
2023-04-24T09:27:00.118Z,94.54
2023-04-24T09:29:31.040Z,93.35
2023-04-24T09:32:00.538Z,92.14
2023-04-24T09:34:32.602Z,92.10
2023-04-24T09:37:02.508Z,91.27
2023-04-24T09:39:39.260Z,92.05
2023-04-24T09:42:08.719Z,91.79
2023-04-24T09:44:37.703Z,90.03
2023-04-24T09:47:20.895Z,89.72
2023-04-24T09:49:58.930Z,89.27
2023-04-24T09:52:29.099Z,89.98
2023-04-24T09:55:06.774Z,89.44
2023-04-24T09:57:37.075Z,89.71
2023-04-24T10:00:10.913Z,89.41
2023-04-24T10:02:40.835Z,88.47
2023-04-24T10:05:16.853Z,88.81
2023-04-24T10:07:49.587Z,88.82
2023-04-24T10:10:25.027Z,88.72
2023-04-24T10:12:55.878Z,87.33
2023-04-24T10:15:24.948Z,87.76
2023-04-24T10:17:54.580Z,87.49
2023-04-24T10:20:32.415Z,86.75
2023-04-24T10:23:02.925Z,86.76
2023-04-24T10:25:38.130Z,87.45
2023-04-24T10:28:10.504Z,87.45
2023-04-24T10:30:39.828Z,87.18
2023-04-24T10:33:10.656Z,89.20
2023-04-24T10:35:43.682Z,89.48
2023-04-24T10:38:25.121Z,90.40
2023-04-24T10:41:02.021Z,90.56
2023-04-24T10:43:31.378Z,91.15
2023-04-24T10:46:07.913Z,91.71
2023-04-24T10:48:37.152Z,92.54
2023-04-24T10:51:07.634Z,93.79
2023-04-24T10:53:37.696Z,93.62
2023-04-24T10:56:10.773Z,93.44
2023-04-24T10:58:48.657Z,92.06
2023-04-24T11:01:29.101Z,92.56
2023-04-24T11:04:01.793Z,93.23
2023-04-24T11:06:44.438Z,91.22
2023-04-24T11:09:14.160Z,92.28
2023-04-24T11:11:49.114Z,92.63
2023-04-24T11:14:21.124Z,94.31
2023-04-24T11:16:57.463Z,93.87
2023-04-24T11:19:29.058Z,94.90
2023-04-24T11:22:01.474Z,96.60
2023-04-24T11:24:35.082Z,98.75
2023-04-24T11:27:19.966Z,98.03
2023-04-24T11:29:51.855Z,96.44
2023-04-24T11:32:31.837Z,98.12
2023-04-24T11:35:02.576Z,96.71
2023-04-24T11:37:37.313Z,96.87
2023-04-24T11:40:06.865Z,98.21
2023-04-24T11:42:42.545Z,98.90
2023-04-24T11:45:17.241Z,96.35
2023-04-24T11:47:47.303Z,97.68
2023-04-24T11:50:26.726Z,100.00
2023-04-24T11:52:59.023Z,98.11
2023-04-24T11:55:37.607Z,98.55
2023-04-24T11:58:08.543Z,98.98
2023-04-24T12:00:39.429Z,99.64
2023-04-24T12:03:10.183Z,99.67
2023-04-24T12:05:40.148Z,98.98
2023-04-24T12:08:14.078Z,97.13
2023-04-24T12:10:42.917Z,98.04
2023-04-24T12:13:13.486Z,96.31
2023-04-24T12:15:45.264Z,98.07
2023-04-24T12:18:17.316Z,98.98
2023-04-24T12:20:46.240Z,97.76
2023-04-24T12:23:15.782Z,97.15
2023-04-24T12:25:43.990Z,96.28
2023-04-24T12:28:15.609Z,97.70
2023-04-24T12:30:48.947Z,97.08
2023-04-24T12:33:23.623Z,92.71
2023-04-24T12:35:59.133Z,91.16
2023-04-24T12:38:41.692Z,93.26
2023-04-24T12:41:15.245Z,93.02
2023-04-24T12:43:58.536Z,93.55
2023-04-24T12:46:29.049Z,93.43
2023-04-24T12:49:00.498Z,92.67
2023-04-24T12:51:29.306Z,91.59
2023-04-24T12:54:01.618Z,92.18
2023-04-24T12:56:32.698Z,92.18
2023-04-24T12:59:04.533Z,93.00
2023-04-24T13:01:34.192Z,91.71
2023-04-24T13:04:06.254Z,91.46
2023-04-24T13:06:35.994Z,93.06
2023-04-24T13:09:06.296Z,91.67
2023-04-24T13:11:46.055Z,92.20
2023-04-24T13:14:20.520Z,93.04
2023-04-24T13:16:49.384Z,92.83
2023-04-24T13:19:19.196Z,91.22
2023-04-24T13:21:50.066Z,89.65
2023-04-24T13:24:28.615Z,89.56
2023-04-24T13:26:59.160Z,90.89
2023-04-24T13:29:28.831Z,92.64
2023-04-24T13:31:57.631Z,90.34
2023-04-24T13:34:29.944Z,89.74
2023-04-24T13:37:07.457Z,90.12
2023-04-24T13:39:37.879Z,90.03
2023-04-24T13:42:15.899Z,89.52
2023-04-24T13:44:48.180Z,90.46
2023-04-24T13:47:21.785Z,91.20
2023-04-24T13:49:51.112Z,88.75
2023-04-24T13:52:27.467Z,90.88
2023-04-24T13:54:56.790Z,90.92
2023-04-24T13:57:25.119Z,91.14
2023-04-24T13:59:59.007Z,92.90
2023-04-24T14:02:28.752Z,91.59
2023-04-24T14:05:01.848Z,92.19
2023-04-24T14:07:31.643Z,94.16
2023-04-24T14:10:03.642Z,96.49
2023-04-24T14:12:34.431Z,97.65
2023-04-24T14:15:14.564Z,96.35
2023-04-24T14:17:43.239Z,96.72
2023-04-24T14:20:14.260Z,98.11
2023-04-24T14:22:43.083Z,98.56
2023-04-24T14:25:12.816Z,96.17
2023-04-24T14:27:41.173Z,96.52
2023-04-24T14:30:14.190Z,98.18
2023-04-24T14:32:45.873Z,97.54
2023-04-24T14:35:20.304Z,97.11
2023-04-24T14:37:49.536Z,97.75
2023-04-24T14:40:48.492Z,97.55
2023-04-24T14:43:10.954Z,95.27
2023-04-24T14:45:43.383Z,94.37
2023-04-24T14:48:15.154Z,94.63
2023-04-24T14:50:51.921Z,94.51
2023-04-24T14:53:36.182Z,96.55
2023-04-24T14:56:05.875Z,95.45
2023-04-24T14:58:41.834Z,97.11
2023-04-24T15:01:22.175Z,96.85
2023-04-24T15:03:54.382Z,98.03
2023-04-24T15:06:33.868Z,99.24
2023-04-24T15:09:04.795Z,99.22
2023-04-24T15:11:37.486Z,100.00
2023-04-24T15:14:06.311Z,100.00
2023-04-24T15:16:52.616Z,100.00
2023-04-24T15:19:23.792Z,100.00
2023-04-24T15:21:53.282Z,100.00
2023-04-24T15:24:24.265Z,100.00
2023-04-24T15:26:54.293Z,100.00
2023-04-24T15:29:26.764Z,100.00
2023-04-24T15:32:01.631Z,100.00
2023-04-24T15:34:33.167Z,100.00
2023-04-24T15:37:04.819Z,100.00
2023-04-24T15:39:42.586Z,100.00
2023-04-24T15:42:19.054Z,100.00
2023-04-24T15:44:50.929Z,100.00
2023-04-24T15:47:25.640Z,100.00
2023-04-24T15:49:55.357Z,100.00
2023-04-24T15:52:30.761Z,100.00
2023-04-24T15:55:00.144Z,100.00
2023-04-24T15:57:29.158Z,99.26
2023-04-24T16:00:00.876Z,100.00
2023-04-24T16:02:33.439Z,100.00
2023-04-24T16:05:09.827Z,100.00
2023-04-24T16:07:47.708Z,100.00
2023-04-24T16:10:25.272Z,100.00
2023-04-24T16:12:54.845Z,100.00
2023-04-24T16:15:33.209Z,100.00
2023-04-24T16:18:07.635Z,100.00
2023-04-24T16:20:37.034Z,100.00
2023-04-24T16:23:05.401Z,100.00
2023-04-24T16:25:35.414Z,100.00
2023-04-24T16:28:13.924Z,100.00
2023-04-24T16:30:47.984Z,100.00
2023-04-24T16:33:24.352Z,100.00
2023-04-24T16:36:00.137Z,100.00
2023-04-24T16:38:31.828Z,100.00
2023-04-24T16:41:03.438Z,100.00
2023-04-24T16:43:38.550Z,100.00
2023-04-24T16:46:10.758Z,100.00
2023-04-24T16:48:54.382Z,100.00
2023-04-24T16:51:29.547Z,100.00
2023-04-24T16:54:02.762Z,100.00
2023-04-24T16:56:32.129Z,100.00
2023-04-24T16:59:00.785Z,100.00
2023-04-24T17:01:30.655Z,100.00
2023-04-24T17:04:09.289Z,100.00
2023-04-24T17:06:41.504Z,100.00
2023-04-24T17:09:15.919Z,100.00
2023-04-24T17:11:45.296Z,100.00
2023-04-24T17:14:17.864Z,100.00
2023-04-24T17:16:49.175Z,100.00
2023-04-24T17:19:26.754Z,100.00
2023-04-24T17:22:06.120Z,100.00
2023-04-24T17:24:37.638Z,100.00
2023-04-24T17:27:14.844Z,100.00
2023-04-24T17:29:47.154Z,99.73
2023-04-24T17:32:24.670Z,99.08
2023-04-24T17:35:02.062Z,99.76
2023-04-24T17:37:32.200Z,99.55
2023-04-24T17:40:22.591Z,99.07
2023-04-24T17:43:07.724Z,100.00
2023-04-24T17:45:47.941Z,100.00
2023-04-24T17:48:22.771Z,99.55
2023-04-24T17:50:57.763Z,99.48
2023-04-24T17:53:27.248Z,99.75
2023-04-24T17:56:02.101Z,99.81
2023-04-24T17:58:43.642Z,98.29
2023-04-24T18:01:24.216Z,97.92
2023-04-24T18:04:00.463Z,99.31
2023-04-24T18:06:40.051Z,98.12
2023-04-24T18:09:09.950Z,98.38
2023-04-24T18:11:44.651Z,98.58
2023-04-24T18:14:16.042Z,98.66
2023-04-24T18:16:47.748Z,98.58
2023-04-24T18:19:18.942Z,98.96
2023-04-24T18:22:09.744Z,99.06
2023-04-24T18:24:47.644Z,98.83
2023-04-24T18:27:27.355Z,99.29
2023-04-24T18:30:01.714Z,97.94
2023-04-24T18:32:47.522Z,97.27
2023-04-24T18:35:25.857Z,97.66
2023-04-24T18:38:09.703Z,96.58
2023-04-24T18:40:41.185Z,96.60
2023-04-24T18:43:12.344Z,96.38
2023-04-24T18:45:46.769Z,96.55
2023-04-24T18:48:16.980Z,95.21
2023-04-24T18:50:50.071Z,93.90
2023-04-24T18:53:24.995Z,93.72
2023-04-24T18:56:14.623Z,92.48
2023-04-24T18:58:47.273Z,92.45
2023-04-24T19:01:21.986Z,91.46
2023-04-24T19:04:06.518Z,91.25
2023-04-24T19:06:51.657Z,90.67
2023-04-24T19:09:45.692Z,90.45
2023-04-24T19:12:19.959Z,89.39
2023-04-24T19:14:56.562Z,88.42
2023-04-24T19:17:28.327Z,88.69
2023-04-24T19:20:04.066Z,88.88
2023-04-24T19:22:43.924Z,89.51
2023-04-24T19:25:20.379Z,89.78
2023-04-24T19:27:53.255Z,89.13
2023-04-24T19:30:26.070Z,88.26
2023-04-24T19:32:56.524Z,87.93
2023-04-24T19:35:32.236Z,88.75
2023-04-24T19:38:10.019Z,89.92
2023-04-24T19:40:43.741Z,89.51
2023-04-24T19:43:17.128Z,90.38
2023-04-24T19:46:01.456Z,91.11
2023-04-24T19:48:36.937Z,90.26
2023-04-24T19:51:17.145Z,91.10
2023-04-24T19:53:52.516Z,90.71
2023-04-24T19:56:22.610Z,91.65
2023-04-24T19:58:54.485Z,90.02
2023-04-24T20:01:28.488Z,90.39
2023-04-24T20:03:59.778Z,90.64
2023-04-24T20:06:31.864Z,90.14
2023-04-24T20:09:01.821Z,88.93
2023-04-24T20:11:34.457Z,89.34
2023-04-24T20:14:14.477Z,88.79
2023-04-24T20:16:54.380Z,88.10
2023-04-24T20:19:26.263Z,87.63
2023-04-24T20:21:58.989Z,86.60
2023-04-24T20:24:32.570Z,87.91
2023-04-24T20:27:10.399Z,87.99
2023-04-24T20:29:50.990Z,87.41
2023-04-24T20:32:32.958Z,86.68
2023-04-24T20:35:02.736Z,86.97
2023-04-24T20:37:33.959Z,86.50
2023-04-24T20:40:11.822Z,86.53
2023-04-24T20:42:45.932Z,86.60
2023-04-24T20:45:28.033Z,84.24
2023-04-24T20:47:58.390Z,85.64
2023-04-24T20:50:33.530Z,85.59
2023-04-24T20:53:04.320Z,85.29
2023-04-24T20:55:40.388Z,85.09
2023-04-24T20:58:11.500Z,84.41
2023-04-24T21:00:44.359Z,83.24
2023-04-24T21:03:21.335Z,83.70
2023-04-24T21:05:52.693Z,83.01
2023-04-24T21:08:36.805Z,82.60
2023-04-24T21:11:20.463Z,82.89
2023-04-24T21:13:50.435Z,82.41
2023-04-24T21:16:25.855Z,81.74
2023-04-24T21:18:55.946Z,82.72
2023-04-24T21:21:25.494Z,82.24
2023-04-24T21:24:05.793Z,81.85
2023-04-24T21:26:43.880Z,82.46
2023-04-24T21:29:16.463Z,82.25
2023-04-24T21:31:56.021Z,82.04
2023-04-24T21:34:27.651Z,82.11
2023-04-24T21:37:05.606Z,80.56
2023-04-24T21:39:34.962Z,80.76
2023-04-24T21:42:05.357Z,80.82
2023-04-24T21:44:35.197Z,80.74
2023-04-24T21:47:11.158Z,80.15
2023-04-24T21:49:43.064Z,79.02
2023-04-24T21:52:27.113Z,79.06
2023-04-24T21:54:57.826Z,78.94
2023-04-24T21:57:31.313Z,77.96
2023-04-24T22:00:01.381Z,77.90
2023-04-24T22:02:38.390Z,77.28
2023-04-24T22:05:16.569Z,77.64
2023-04-24T22:07:59.396Z,76.57
2023-04-24T22:10:37.309Z,77.82
2023-04-24T22:13:10.255Z,77.05
2023-04-24T22:15:42.777Z,75.93
2023-04-24T22:18:13.413Z,77.22
2023-04-24T22:20:42.758Z,76.43
2023-04-24T22:23:13.603Z,76.58
2023-04-24T22:25:44.841Z,75.57
2023-04-24T22:28:16.521Z,75.67
2023-04-24T22:30:48.752Z,75.91
2023-04-24T22:33:24.518Z,76.07
2023-04-24T22:35:55.377Z,76.08
2023-04-24T22:38:32.917Z,75.69
2023-04-24T22:41:02.726Z,74.48
2023-04-24T22:43:31.533Z,75.54
2023-04-24T22:46:05.862Z,75.61
2023-04-24T22:48:36.588Z,75.24
2023-04-24T22:51:06.487Z,75.37
2023-04-24T22:53:36.334Z,75.61
2023-04-24T22:56:04.612Z,74.95
2023-04-24T22:58:33.671Z,74.37
2023-04-24T23:01:04.230Z,73.71
2023-04-24T23:03:53.880Z,73.36
2023-04-24T23:06:26.127Z,73.28
2023-04-24T23:09:00.590Z,72.87
2023-04-24T23:11:31.003Z,73.50
2023-04-24T23:14:02.124Z,72.67
2023-04-24T23:16:37.874Z,73.26
2023-04-24T23:19:16.053Z,73.33
2023-04-24T23:21:45.644Z,73.02
2023-04-24T23:24:14.649Z,73.23
2023-04-24T23:26:43.407Z,73.67
2023-04-24T23:29:14.854Z,73.51
2023-04-24T23:31:43.203Z,73.70
2023-04-24T23:34:27.865Z,74.15
2023-04-24T23:37:10.718Z,73.93
2023-04-24T23:39:44.105Z,74.52
2023-04-24T23:42:24.884Z,74.06
2023-04-24T23:44:54.714Z,73.52
2023-04-24T23:47:39.037Z,73.83
2023-04-24T23:50:17.224Z,72.47
2023-04-24T23:52:48.489Z,72.95
2023-04-24T23:55:26.332Z,72.37
2023-04-24T23:57:54.744Z,72.28
